createdAt,value
2023-12-29T00:04:01.051Z,95875.00
2023-12-29T00:09:29.752Z,95868.00
2023-12-29T00:14:57.674Z,95851.00
2023-12-29T00:20:34.019Z,95843.00
2023-12-29T00:26:09.169Z,95846.00
2023-12-29T00:31:37.576Z,95835.00
2023-12-29T00:37:07.131Z,95830.00
2023-12-29T00:42:35.012Z,95831.00
2023-12-29T00:48:04.153Z,95831.00
2023-12-29T00:53:33.464Z,95807.00
2023-12-29T00:59:01.364Z,95803.00
2023-12-29T01:04:29.533Z,95802.00
2023-12-29T01:09:57.487Z,95810.00
2023-12-29T01:15:25.349Z,95796.00
2023-12-29T01:20:53.859Z,95809.00
2023-12-29T01:26:21.777Z,95824.00
2023-12-29T01:31:49.856Z,95829.00
2023-12-29T01:37:17.887Z,95829.00
2023-12-29T01:42:45.893Z,95815.00
2023-12-29T01:48:14.611Z,95806.00
2023-12-29T01:53:48.016Z,95811.00
2023-12-29T01:59:25.271Z,95798.00
2023-12-29T02:04:54.763Z,95786.00
2023-12-29T02:10:23.590Z,95797.00
2023-12-29T02:15:56.229Z,95792.00
2023-12-29T02:21:28.069Z,95780.00
2023-12-29T02:27:28.251Z,95773.00
2023-12-29T02:33:02.005Z,95778.00
2023-12-29T02:38:30.622Z,95777.00
2023-12-29T02:44:00.585Z,95777.00
2023-12-29T02:49:28.825Z,95765.00
2023-12-29T02:54:56.786Z,95752.00
2023-12-29T03:00:25.064Z,95741.00
2023-12-29T03:05:52.941Z,95743.00
2023-12-29T03:11:20.982Z,95731.00
2023-12-29T03:16:48.815Z,95728.00
2023-12-29T03:22:16.809Z,95729.00
2023-12-29T03:27:44.738Z,95733.00
2023-12-29T03:33:12.771Z,95732.00
2023-12-29T03:38:41.012Z,95742.00
2023-12-29T03:44:08.889Z,95735.00
2023-12-29T03:49:37.020Z,95727.00
2023-12-29T03:55:05.733Z,95722.00
2023-12-29T04:00:33.880Z,95729.00
2023-12-29T04:06:01.892Z,95730.00
2023-12-29T04:11:29.757Z,95716.00
2023-12-29T04:16:57.578Z,95715.00
2023-12-29T04:22:25.512Z,95706.00
2023-12-29T04:27:53.546Z,95702.00
2023-12-29T04:33:21.487Z,95718.00
2023-12-29T04:38:51.321Z,95701.00
2023-12-29T04:44:19.207Z,95708.00
2023-12-29T04:49:47.184Z,95703.00
2023-12-29T04:55:15.273Z,95709.00
2023-12-29T05:00:43.329Z,95715.00
2023-12-29T05:06:11.809Z,95706.00
2023-12-29T05:11:40.446Z,95709.00
2023-12-29T05:17:09.881Z,95709.00
2023-12-29T05:22:37.837Z,95698.00
2023-12-29T05:28:06.088Z,95699.00
2023-12-29T05:33:34.944Z,95708.00
2023-12-29T05:39:03.651Z,95710.00
2023-12-29T05:44:31.642Z,95718.00
2023-12-29T05:49:59.578Z,95725.00
2023-12-29T05:55:27.968Z,95728.00
2023-12-29T06:01:02.952Z,95726.00
2023-12-29T06:06:30.994Z,95725.00
2023-12-29T06:11:59.055Z,95731.00
2023-12-29T06:17:27.010Z,95746.00
2023-12-29T06:22:56.727Z,95744.00
2023-12-29T06:28:24.661Z,95751.00
2023-12-29T06:33:52.766Z,95746.00
2023-12-29T06:39:20.757Z,95741.00
2023-12-29T06:44:49.096Z,95734.00
2023-12-29T06:50:17.053Z,95739.00
2023-12-29T06:55:45.099Z,95737.00
2023-12-29T07:01:13.531Z,95742.00
2023-12-29T07:06:41.591Z,95730.00
2023-12-29T07:12:09.773Z,95734.00
2023-12-29T07:17:37.767Z,95727.00
2023-12-29T07:23:06.496Z,95735.00
2023-12-29T07:28:34.812Z,95743.00
2023-12-29T07:34:02.954Z,95743.00
2023-12-29T07:39:31.001Z,95768.00
2023-12-29T07:44:58.863Z,95763.00
2023-12-29T07:50:26.806Z,95767.00
2023-12-29T07:55:56.025Z,95775.00
2023-12-29T08:01:24.125Z,95782.00
2023-12-29T08:06:52.034Z,95782.00
2023-12-29T08:12:21.334Z,95783.00
2023-12-29T08:17:49.270Z,95785.00
2023-12-29T08:23:17.227Z,95775.00
2023-12-29T08:28:46.535Z,95780.00
2023-12-29T08:34:14.708Z,95776.00
2023-12-29T08:39:42.670Z,95775.00
2023-12-29T08:45:10.823Z,95779.00
2023-12-29T08:50:38.682Z,95782.00
2023-12-29T08:56:06.987Z,95775.00
2023-12-29T09:01:34.987Z,95773.00
2023-12-29T09:07:03.081Z,95781.00
2023-12-29T09:12:31.109Z,95788.00
2023-12-29T09:17:59.371Z,95790.00
2023-12-29T09:23:27.402Z,95776.00
2023-12-29T09:28:55.261Z,95796.00
2023-12-29T09:34:23.211Z,95797.00
2023-12-29T09:39:51.197Z,95793.00
2023-12-29T09:45:24.730Z,95784.00
2023-12-29T09:50:53.892Z,95782.00
2023-12-29T09:56:21.901Z,95785.00
2023-12-29T10:01:50.430Z,95784.00
2023-12-29T10:07:29.820Z,95767.00
2023-12-29T10:12:59.266Z,95751.00
2023-12-29T10:18:48.568Z,95746.00
2023-12-29T10:24:23.689Z,95754.00
2023-12-29T10:29:51.576Z,95737.00
2023-12-29T10:35:20.542Z,95735.00
2023-12-29T10:40:48.477Z,95725.00
2023-12-29T10:46:16.507Z,95726.00
2023-12-29T10:51:44.467Z,95716.00
2023-12-29T10:57:14.009Z,95706.00
2023-12-29T11:02:42.941Z,95716.00
2023-12-29T11:08:22.468Z,95691.00
2023-12-29T11:13:51.546Z,95703.00
2023-12-29T11:19:20.086Z,95693.00
2023-12-29T11:24:49.275Z,95691.00
2023-12-29T11:30:18.049Z,95679.00
2023-12-29T11:35:59.141Z,95681.00
2023-12-29T11:42:14.268Z,95675.00
2023-12-29T11:47:42.980Z,95675.00
2023-12-29T11:53:34.142Z,95679.00
2023-12-29T11:59:22.115Z,95671.00
2023-12-29T12:04:51.810Z,95659.00
2023-12-29T12:10:32.620Z,95657.00
2023-12-29T12:16:00.797Z,95665.00
2023-12-29T12:21:28.833Z,95669.00
2023-12-29T12:26:57.233Z,95650.00
2023-12-29T12:32:29.150Z,95672.00
2023-12-29T12:38:22.593Z,95646.00
2023-12-29T12:44:11.592Z,95646.00
2023-12-29T12:49:39.721Z,95660.00
2023-12-29T12:55:12.602Z,95648.00
2023-12-29T13:00:40.809Z,95651.00
2023-12-29T13:06:09.348Z,95660.00
2023-12-29T13:11:38.054Z,95651.00
2023-12-29T13:17:12.004Z,95660.00
2023-12-29T13:22:39.928Z,95671.00
2023-12-29T13:28:09.057Z,95661.00
2023-12-29T13:33:54.882Z,95672.00
2023-12-29T13:39:40.392Z,95664.00
2023-12-29T13:45:10.767Z,95653.00
2023-12-29T13:50:38.683Z,95660.00
2023-12-29T13:56:11.181Z,95657.00
2023-12-29T14:01:39.541Z,95675.00
2023-12-29T14:07:10.844Z,95664.00
2023-12-29T14:12:38.764Z,95667.00
2023-12-29T14:18:34.556Z,95659.00
2023-12-29T14:24:08.017Z,95665.00
2023-12-29T14:29:45.235Z,95661.00
2023-12-29T14:35:14.234Z,95670.00
2023-12-29T14:40:42.097Z,95661.00
2023-12-29T14:46:10.248Z,95667.00
2023-12-29T14:51:38.199Z,95654.00
2023-12-29T14:57:11.284Z,95662.00
2023-12-29T15:02:44.435Z,95655.00
2023-12-29T15:08:13.112Z,95643.00
2023-12-29T15:13:40.960Z,95648.00
2023-12-29T15:19:10.320Z,95643.00
2023-12-29T15:24:38.347Z,95644.00
2023-12-29T15:30:07.310Z,95646.00
2023-12-29T15:35:35.212Z,95655.00
2023-12-29T15:41:03.532Z,95654.00
2023-12-29T15:46:31.458Z,95655.00
2023-12-29T15:51:59.832Z,95659.00
2023-12-29T15:57:27.643Z,95655.00
2023-12-29T16:02:55.497Z,95651.00
2023-12-29T16:08:23.348Z,95646.00
2023-12-29T16:13:51.796Z,95652.00
2023-12-29T16:19:19.847Z,95646.00
2023-12-29T16:24:50.441Z,95650.00
2023-12-29T16:30:18.395Z,95649.00
2023-12-29T16:35:46.318Z,95656.00
2023-12-29T16:41:14.738Z,95646.00
2023-12-29T16:46:42.539Z,95641.00
2023-12-29T16:52:10.557Z,95635.00
2023-12-29T16:57:38.418Z,95636.00
2023-12-29T17:03:06.424Z,95636.00
2023-12-29T17:08:36.575Z,95623.00
2023-12-29T17:14:04.428Z,95621.00
2023-12-29T17:19:32.464Z,95606.00
2023-12-29T17:25:00.452Z,95608.00
2023-12-29T17:30:28.406Z,95608.00
2023-12-29T17:35:56.551Z,95611.00
2023-12-29T17:41:24.744Z,95614.00
2023-12-29T17:46:56.928Z,95609.00
2023-12-29T17:52:24.894Z,95613.00
2023-12-29T17:57:52.820Z,95608.00
2023-12-29T18:03:20.682Z,95608.00
2023-12-29T18:08:48.569Z,95611.00
2023-12-29T18:14:17.920Z,95611.00
2023-12-29T18:19:45.852Z,95598.00
2023-12-29T18:25:14.305Z,95605.00
2023-12-29T18:30:42.949Z,95602.00
2023-12-29T18:36:11.492Z,95588.00
2023-12-29T18:41:39.419Z,95600.00
2023-12-29T18:47:07.731Z,95597.00
2023-12-29T18:52:35.616Z,95599.00
2023-12-29T18:58:03.503Z,95611.00
2023-12-29T19:03:33.512Z,95597.00
2023-12-29T19:09:01.380Z,95591.00
2023-12-29T19:14:29.277Z,95596.00
2023-12-29T19:19:57.387Z,95595.00
2023-12-29T19:25:25.525Z,95593.00
2023-12-29T19:30:53.491Z,95586.00
2023-12-29T19:36:22.103Z,95597.00
2023-12-29T19:41:50.105Z,95594.00
2023-12-29T19:47:19.108Z,95587.00
2023-12-29T19:52:47.033Z,95593.00
2023-12-29T19:58:15.074Z,95592.00
2023-12-29T20:03:43.173Z,95596.00
2023-12-29T20:09:11.405Z,95596.00
2023-12-29T20:14:39.263Z,95597.00
2023-12-29T20:20:10.608Z,95593.00
2023-12-29T20:25:40.156Z,95591.00
2023-12-29T20:31:08.204Z,95594.00
2023-12-29T20:36:36.184Z,95600.00
2023-12-29T20:42:04.780Z,95588.00
2023-12-29T20:47:32.606Z,95594.00
2023-12-29T20:53:00.730Z,95605.00
2023-12-29T20:58:29.603Z,95592.00
2023-12-29T21:03:57.531Z,95603.00
2023-12-29T21:09:27.241Z,95602.00
2023-12-29T21:14:56.648Z,95603.00
2023-12-29T21:20:24.583Z,95605.00
2023-12-29T21:25:52.430Z,95599.00
2023-12-29T21:31:21.342Z,95613.00
2023-12-29T21:36:49.313Z,95619.00
2023-12-29T21:42:17.167Z,95619.00
2023-12-29T21:47:45.417Z,95617.00
2023-12-29T21:53:13.336Z,95613.00
2023-12-29T21:58:41.365Z,95622.00
2023-12-29T22:04:10.442Z,95624.00
2023-12-29T22:09:39.530Z,95626.00
2023-12-29T22:15:08.510Z,95631.00
2023-12-29T22:20:36.385Z,95629.00
2023-12-29T22:26:04.417Z,95632.00
2023-12-29T22:31:33.520Z,95635.00
2023-12-29T22:37:02.685Z,95637.00
2023-12-29T22:42:31.045Z,95631.00
2023-12-29T22:47:59.248Z,95627.00
2023-12-29T22:53:30.144Z,95620.00
2023-12-29T22:58:58.281Z,95630.00
2023-12-29T23:04:26.554Z,95618.00
2023-12-29T23:09:54.420Z,95611.00
2023-12-29T23:15:23.048Z,95616.00
2023-12-29T23:20:50.993Z,95622.00
2023-12-29T23:26:18.838Z,95625.00
2023-12-29T23:31:50.559Z,95622.00
2023-12-29T23:37:19.093Z,95609.00
2023-12-29T23:42:47.366Z,95615.00
2023-12-29T23:48:15.408Z,95623.00
2023-12-29T23:53:43.324Z,95613.00
2023-12-29T23:59:11.302Z,95595.00
